Time;durP1;ratioP1;P1;durP2;ratioP2;P2;SDS_P1;SDS_P2;PMS_P1;PMS_P2;Temp;Humidity;BMP_temperature;BMP_pressure;BME280_temperature;BME280_humidity;BME280_pressure;Samples;Min_cycle;Max_cycle;Signal;HPM_P1;HPM_P2
2023/03/21 00:00:21;;;;;;;34.10;17.60;;;11.00;99.90;;;;;;4772717;30;20031;-80
2023/03/21 00:02:47;;;;;;;27.38;17.25;;;11.00;99.90;;;;;;4772971;30;20089;-80
2023/03/21 00:05:13;;;;;;;35.10;18.50;;;11.00;99.90;;;;;;4788846;30;20092;-79
2023/03/21 00:07:39;;;;;;;35.25;19.13;;;11.00;99.90;;;;;;4772787;30;20047;-80
2023/03/21 00:10:05;;;;;;;36.38;20.23;;;11.00;99.90;;;;;;4773213;30;20415;-80
2023/03/21 00:12:31;;;;;;;39.75;20.73;;;11.00;99.90;;;;;;4789091;30;20035;-79
2023/03/21 00:15:03;;;;;;;49.22;23.83;;;11.00;99.90;;;;;;4788947;30;20046;-79
2023/03/21 00:17:31;;;;;;;38.07;21.80;;;11.00;99.90;;;;;;4772840;30;20047;-79
2023/03/21 00:20:05;;;;;;;36.42;21.85;;;11.00;99.90;;;;;;4772313;30;20372;-80
2023/03/21 00:22:34;;;;;;;30.73;21.88;;;10.90;99.90;;;;;;4787808;30;20435;-80
2023/03/21 00:25:00;;;;;;;34.53;23.92;;;11.00;99.90;;;;;;4786958;30;20035;-81
2023/03/21 00:27:26;;;;;;;34.78;23.27;;;10.90;99.90;;;;;;4789769;29;20094;-80
2023/03/21 00:29:52;;;;;;;38.92;24.25;;;10.90;99.90;;;;;;4790381;30;20441;-80
2023/03/21 00:32:20;;;;;;;32.15;22.55;;;10.90;99.90;;;;;;4792338;30;20088;-80
2023/03/21 00:34:46;;;;;;;34.15;23.55;;;10.90;99.90;;;;;;4791961;30;20039;-80
2023/03/21 00:37:15;;;;;;;33.47;23.13;;;10.90;99.90;;;;;;4775895;30;20075;-80
2023/03/21 00:39:42;;;;;;;38.00;24.20;;;10.90;99.90;;;;;;4790263;30;20035;-80
2023/03/21 00:42:08;;;;;;;42.35;23.95;;;10.90;99.90;;;;;;4790544;30;20462;-80
2023/03/21 00:44:35;;;;;;;28.13;22.15;;;10.90;99.90;;;;;;4791672;30;20035;-79
2023/03/21 00:47:05;;;;;;;34.78;20.80;;;10.90;99.90;;;;;;4791153;30;20409;-80
2023/03/21 00:49:32;;;;;;;32.25;21.23;;;10.90;99.90;;;;;;4791966;30;20031;-79
2023/03/21 00:52:03;;;;;;;33.90;22.10;;;10.80;99.90;;;;;;4790463;30;20035;-80
2023/03/21 00:54:29;;;;;;;31.13;21.65;;;10.90;99.90;;;;;;4791192;30;20445;-80
2023/03/21 00:56:54;;;;;;;26.85;20.80;;;10.90;99.90;;;;;;4775554;30;20046;-80
2023/03/21 00:59:20;;;;;;;35.30;22.30;;;10.90;99.90;;;;;;4775729;30;20073;-80
2023/03/21 01:01:46;;;;;;;32.28;20.45;;;10.90;99.90;;;;;;4775017;30;20035;-80
2023/03/21 01:04:15;;;;;;;33.67;20.60;;;10.80;99.90;;;;;;4775893;30;20032;-80
2023/03/21 01:06:42;;;;;;;33.10;21.83;;;10.80;99.90;;;;;;4791294;30;20043;-80
2023/03/21 01:09:14;;;;;;;27.60;21.40;;;10.80;99.90;;;;;;4775339;30;20481;-80
2023/03/21 01:11:41;;;;;;;32.20;21.30;;;10.90;99.90;;;;;;4790020;30;20036;-81
2023/03/21 01:14:07;;;;;;;29.67;20.33;;;10.80;99.90;;;;;;4761176;30;20134;-81
2023/03/21 01:16:33;;;;;;;26.52;19.45;;;10.80;99.90;;;;;;4789712;30;20036;-80
2023/03/21 01:18:59;;;;;;;32.28;20.55;;;10.90;99.90;;;;;;4775587;30;20031;-80
2023/03/21 01:21:25;;;;;;;30.23;21.10;;;10.90;99.90;;;;;;4790884;30;20496;-81
2023/03/21 01:23:51;;;;;;;30.88;20.90;;;10.80;99.90;;;;;;4775364;30;20046;-80
2023/03/21 01:26:17;;;;;;;29.33;20.20;;;10.80;99.90;;;;;;4789788;30;20095;-80
2023/03/21 01:28:43;;;;;;;28.15;20.75;;;10.80;99.90;;;;;;4789755;30;20134;-80
2023/03/21 01:31:11;;;;;;;25.73;20.42;;;10.80;99.90;;;;;;4771566;30;20056;-80
2023/03/21 01:33:37;;;;;;;27.77;20.40;;;10.80;99.90;;;;;;4773085;30;20040;-80
2023/03/21 01:36:03;;;;;;;31.25;21.33;;;10.80;99.90;;;;;;4772517;30;20032;-80
2023/03/21 01:38:29;;;;;;;27.83;21.45;;;10.80;99.90;;;;;;4773157;30;20094;-81
2023/03/21 01:40:55;;;;;;;29.02;21.65;;;10.80;99.90;;;;;;4775696;30;20560;-80
2023/03/21 01:43:33;;;;;;;28.02;19.55;;;10.80;99.90;;;;;;4772605;30;20043;-80
2023/03/21 01:46:09;;;;;;;28.95;20.25;;;10.80;99.90;;;;;;4787980;30;20081;-80
2023/03/21 01:48:42;;;;;;;26.30;18.70;;;10.80;99.90;;;;;;4773186;30;20040;-80
2023/03/21 01:51:12;;;;;;;29.80;19.33;;;10.80;99.90;;;;;;4774384;30;20035;-80
2023/03/21 01:53:39;;;;;;;28.48;19.98;;;10.80;99.90;;;;;;4757598;30;20050;-80
2023/03/21 01:56:15;;;;;;;31.13;19.95;;;10.80;99.90;;;;;;4771976;30;20385;-80
2023/03/21 01:58:42;;;;;;;29.88;20.00;;;10.80;99.90;;;;;;4771364;30;20040;-80
2023/03/21 02:01:09;;;;;;;30.85;19.00;;;10.70;99.90;;;;;;4771443;30;20042;-80
2023/03/21 02:03:36;;;;;;;27.50;18.40;;;10.70;99.90;;;;;;4771426;30;20123;-80
2023/03/21 02:06:11;;;;;;;25.98;17.92;;;10.80;99.90;;;;;;4786726;30;20036;-80
2023/03/21 02:08:37;;;;;;;26.92;18.15;;;10.70;99.90;;;;;;4786657;30;20047;-80
2023/03/21 02:11:03;;;;;;;24.85;18.30;;;10.70;99.90;;;;;;4772263;30;20474;-80
2023/03/21 02:13:29;;;;;;;25.83;18.33;;;10.80;99.90;;;;;;4771298;30;20028;-80
2023/03/21 02:16:00;;;;;;;26.15;17.73;;;10.80;99.90;;;;;;4786537;30;20040;-80
2023/03/21 02:18:52;;;;;;;29.65;19.02;;;10.70;99.90;;;;;;4771669;30;20140;-80
2023/03/21 02:21:45;;;;;;;25.85;18.48;;;10.70;99.90;;;;;;4772219;30;20115;-80
2023/03/21 02:24:55;;;;;;;30.05;19.48;;;10.70;99.90;;;;;;4772189;30;20097;-80
2023/03/21 02:27:23;;;;;;;26.52;18.83;;;10.70;99.90;;;;;;4770904;30;20055;-80
2023/03/21 02:30:08;;;;;;;30.35;20.52;;;10.70;99.90;;;;;;4785982;30;20084;-80
2023/03/21 02:33:15;;;;;;;28.55;19.75;;;10.70;99.90;;;;;;4774083;30;20073;-80
2023/03/21 02:36:08;;;;;;;27.40;18.73;;;10.70;99.90;;;;;;4737253;30;20043;-81
2023/03/21 02:38:48;;;;;;;28.23;19.88;;;10.70;99.90;;;;;;4737160;30;20196;-80
2023/03/21 02:41:34;;;;;;;27.13;20.52;;;10.70;99.90;;;;;;4764535;30;20040;-80
2023/03/21 02:44:30;;;;;;;33.63;20.98;;;10.60;99.90;;;;;;4789828;30;20055;-80
2023/03/21 02:47:04;;;;;;;29.67;19.90;;;10.60;99.90;;;;;;4790259;30;20039;-80
2023/03/21 02:49:41;;;;;;;31.80;20.30;;;10.60;99.90;;;;;;4788823;29;20031;-80
2023/03/21 02:52:12;;;;;;;31.35;20.60;;;10.60;99.90;;;;;;4790047;30;20542;-80
2023/03/21 02:54:42;;;;;;;31.33;20.88;;;10.60;99.90;;;;;;4789795;30;20048;-80
2023/03/21 02:57:08;;;;;;;28.35;20.20;;;10.60;99.90;;;;;;4789515;30;20039;-80
2023/03/21 02:59:34;;;;;;;31.85;21.25;;;10.70;99.90;;;;;;4774897;30;20046;-80
2023/03/21 03:02:01;;;;;;;29.15;19.73;;;10.70;99.90;;;;;;4774975;30;20046;-80
2023/03/21 03:04:27;;;;;;;28.60;20.17;;;10.70;99.90;;;;;;4791274;30;20040;-80
2023/03/21 03:07:19;;;;;;;31.77;21.45;;;10.70;99.90;;;;;;4790430;30;20043;-81
2023/03/21 03:10:00;;;;;;;30.80;20.20;;;10.70;99.90;;;;;;4759636;30;20039;-81
2023/03/21 03:12:40;;;;;;;36.22;21.70;;;10.70;99.90;;;;;;4789803;30;20046;-81
2023/03/21 03:15:21;;;;;;;30.05;20.55;;;10.70;99.90;;;;;;4773275;30;20034;-81
2023/03/21 03:18:18;;;;;;;26.33;20.42;;;10.80;99.90;;;;;;4789534;30;20035;-80
2023/03/21 03:21:04;;;;;;;29.27;20.92;;;10.80;99.90;;;;;;4770901;30;20043;-81
2023/03/21 03:23:47;;;;;;;31.02;21.63;;;10.80;99.90;;;;;;4789142;30;20088;-81
2023/03/21 03:26:18;;;;;;;30.48;20.98;;;10.80;99.90;;;;;;4787749;30;20042;-81
2023/03/21 03:28:50;;;;;;;31.08;20.13;;;10.80;99.90;;;;;;4788320;30;20061;-81
2023/03/21 03:31:24;;;;;;;27.58;20.00;;;10.80;99.90;;;;;;4785145;30;20443;-81
2023/03/21 03:33:54;;;;;;;32.00;20.70;;;10.80;99.90;;;;;;4771444;30;20023;-81
2023/03/21 03:36:26;;;;;;;29.63;20.42;;;10.80;99.90;;;;;;4770759;30;20546;-81
2023/03/21 03:38:53;;;;;;;31.77;20.27;;;10.70;99.90;;;;;;4785298;30;20397;-80
2023/03/21 03:41:27;;;;;;;30.00;21.30;;;10.80;99.90;;;;;;4755110;30;20302;-80
2023/03/21 03:43:56;;;;;;;25.92;18.92;;;10.80;99.90;;;;;;4771024;30;20031;-80
2023/03/21 03:46:51;;;;;;;28.13;20.20;;;10.70;99.90;;;;;;4770879;30;20027;-81
2023/03/21 03:49:21;;;;;;;31.45;19.40;;;10.70;99.90;;;;;;4770740;30;20574;-81
2023/03/21 03:52:07;;;;;;;30.27;19.75;;;10.70;99.90;;;;;;4774365;30;20040;-80
2023/03/21 03:54:38;;;;;;;37.53;20.13;;;10.70;99.90;;;;;;4774772;30;20112;-80
2023/03/21 03:57:05;;;;;;;31.13;17.75;;;10.70;99.90;;;;;;4785371;30;20074;-80
2023/03/21 03:59:35;;;;;;;25.55;17.25;;;10.70;99.90;;;;;;4770916;30;20473;-80
2023/03/21 04:02:00;;;;;;;29.08;16.38;;;10.60;99.90;;;;;;4770450;30;20054;-81
2023/03/21 04:04:28;;;;;;;26.30;17.25;;;10.60;99.90;;;;;;4769273;30;20481;-81
2023/03/21 04:06:54;;;;;;;28.30;15.68;;;10.70;99.90;;;;;;4770861;30;20035;-81
2023/03/21 04:09:20;;;;;;;25.77;15.68;;;10.60;99.90;;;;;;4769921;30;20089;-80
2023/03/21 04:11:47;;;;;;;26.00;14.95;;;10.70;99.90;;;;;;4770197;30;20047;-80
2023/03/21 04:14:12;;;;;;;24.35;14.90;;;10.70;99.90;;;;;;4770958;30;20036;-81
2023/03/21 04:16:38;;;;;;;25.65;14.52;;;10.70;99.90;;;;;;4770657;30;20520;-80
2023/03/21 04:19:04;;;;;;;25.35;14.70;;;10.70;99.90;;;;;;4769483;30;20112;-80
2023/03/21 04:21:30;;;;;;;29.92;14.15;;;10.70;99.90;;;;;;4769251;30;20044;-80
2023/03/21 04:23:56;;;;;;;23.13;13.48;;;10.70;99.90;;;;;;4769188;30;20482;-80
2023/03/21 04:26:22;;;;;;;28.23;13.63;;;10.80;99.90;;;;;;4769554;30;20036;-81
2023/03/21 04:28:49;;;;;;;28.33;12.90;;;10.80;99.90;;;;;;4769210;30;20051;-81
2023/03/21 04:31:16;;;;;;;28.75;13.15;;;10.80;99.90;;;;;;4783990;30;20448;-81
2023/03/21 04:33:43;;;;;;;17.63;11.65;;;10.80;99.90;;;;;;4769293;30;20474;-81
2023/03/21 04:36:26;;;;;;;25.75;12.10;;;10.90;99.90;;;;;;4784179;30;20071;-81
2023/03/21 04:38:52;;;;;;;;;;;10.90;99.90;;;;;;4785047;30;20098;-81
2023/03/21 04:41:18;;;;;;;22.50;11.70;;;11.00;99.90;;;;;;4770466;30;19967;-81
2023/03/21 04:43:44;;;;;;;20.92;11.80;;;11.00;99.90;;;;;;4769038;30;20032;-80
2023/03/21 04:46:09;;;;;;;16.55;11.40;;;11.00;99.90;;;;;;4770371;30;20097;-81
2023/03/21 04:48:35;;;;;;;18.48;10.82;;;11.00;99.90;;;;;;4769030;30;20489;-81
2023/03/21 04:51:01;;;;;;;21.25;12.13;;;11.00;99.90;;;;;;4784733;30;20040;-80
2023/03/21 04:53:27;;;;;;;22.08;11.10;;;11.10;99.90;;;;;;4769586;30;20051;-80
2023/03/21 04:55:52;;;;;;;18.35;10.80;;;11.10;99.90;;;;;;4769049;30;20081;-79
2023/03/21 04:58:19;;;;;;;18.30;10.68;;;11.10;99.90;;;;;;4769194;30;20063;-81
2023/03/21 05:00:45;;;;;;;18.60;10.85;;;11.10;99.90;;;;;;4769291;30;20039;-80
2023/03/21 05:03:18;;;;;;;14.43;10.45;;;11.10;99.90;;;;;;4784107;30;20036;-80
2023/03/21 05:05:44;;;;;;;;;;;11.10;99.90;;;;;;4770415;30;20123;-80
2023/03/21 05:08:11;;;;;;;19.65;10.45;;;11.20;99.90;;;;;;4783722;30;20016;-81
2023/03/21 05:10:36;;;;;;;22.58;10.77;;;11.20;99.90;;;;;;4769460;30;20040;-81
2023/03/21 05:13:02;;;;;;;17.55;9.55;;;11.10;99.90;;;;;;4770705;30;20043;-81
2023/03/21 05:15:28;;;;;;;22.67;11.02;;;11.10;99.90;;;;;;4757403;30;20126;-81
2023/03/21 05:17:54;;;;;;;17.50;10.27;;;11.10;99.90;;;;;;4772643;30;20040;-80
2023/03/21 05:20:19;;;;;;;21.15;10.68;;;11.10;99.90;;;;;;4772125;30;20431;-80
2023/03/21 05:22:48;;;;;;;19.80;10.50;;;11.10;99.90;;;;;;4774050;30;20036;-78
2023/03/21 05:25:17;;;;;;;16.63;10.18;;;11.10;99.90;;;;;;4772966;30;20545;-81
2023/03/21 05:27:44;;;;;;;15.70;9.00;;;11.10;99.90;;;;;;4773170;30;20044;-80
2023/03/21 05:30:14;;;;;;;18.95;10.07;;;11.00;99.90;;;;;;4776282;30;20055;-80
2023/03/21 05:32:40;;;;;;;19.30;9.23;;;11.10;99.90;;;;;;4790068;30;20039;-80
2023/03/21 05:35:06;;;;;;;18.90;9.80;;;11.10;99.90;;;;;;4790925;30;20028;-80
2023/03/21 05:37:32;;;;;;;17.90;9.50;;;11.10;99.90;;;;;;4774672;30;20043;-80
2023/03/21 05:39:58;;;;;;;14.48;9.35;;;11.10;99.90;;;;;;4774618;30;20092;-80
2023/03/21 05:42:24;;;;;;;17.20;9.70;;;11.10;99.90;;;;;;4775239;30;20118;-80
2023/03/21 05:44:50;;;;;;;19.63;10.00;;;11.00;99.90;;;;;;4774978;30;20039;-81
2023/03/21 05:47:17;;;;;;;19.23;10.30;;;11.00;99.90;;;;;;4774991;30;20043;-80
2023/03/21 05:49:43;;;;;;;21.30;10.85;;;11.00;99.90;;;;;;4790927;30;20038;-81
2023/03/21 05:52:10;;;;;;;18.67;9.43;;;11.00;99.90;;;;;;4790944;30;20092;-81
2023/03/21 05:54:35;;;;;;;16.38;8.95;;;11.00;99.90;;;;;;4774535;30;20126;-80
2023/03/21 05:57:02;;;;;;;18.08;9.90;;;11.00;99.90;;;;;;4774883;30;20127;-81
2023/03/21 05:59:28;;;;;;;19.20;9.50;;;11.10;99.90;;;;;;4791041;30;20035;-82
2023/03/21 06:01:54;;;;;;;14.98;8.98;;;11.10;99.90;;;;;;4774495;30;20039;-81
2023/03/21 06:04:20;;;;;;;17.77;9.27;;;11.10;99.90;;;;;;4774349;30;20393;-83
2023/03/21 06:06:45;;;;;;;18.25;9.75;;;11.20;99.90;;;;;;4790756;30;20031;-81
2023/03/21 06:09:12;;;;;;;19.33;9.52;;;11.20;99.90;;;;;;4774583;30;20043;-81
2023/03/21 06:11:42;;;;;;;19.50;8.85;;;11.20;99.90;;;;;;4775045;30;20366;-81
2023/03/21 06:14:08;;;;;;;24.40;10.60;;;11.20;99.90;;;;;;4789435;30;20096;-81
2023/03/21 06:16:34;;;;;;;20.13;10.02;;;11.20;99.90;;;;;;4774425;30;20451;-82
2023/03/21 06:19:00;;;;;;;17.02;8.98;;;11.20;99.90;;;;;;4774463;30;20458;-81
2023/03/21 06:21:25;;;;;;;17.38;9.60;;;11.20;99.90;;;;;;4788946;30;20040;-82
2023/03/21 06:23:51;;;;;;;19.77;9.55;;;11.30;99.90;;;;;;4773198;30;20067;-81
2023/03/21 06:26:21;;;;;;;17.77;9.77;;;11.30;99.90;;;;;;4774031;30;20039;-81
2023/03/21 06:28:49;;;;;;;21.58;9.77;;;11.40;99.90;;;;;;4789959;30;20114;-81
2023/03/21 06:31:15;;;;;;;14.13;8.82;;;11.40;99.90;;;;;;4774023;30;20145;-81
2023/03/21 06:33:41;;;;;;;17.15;9.77;;;11.40;99.90;;;;;;4773850;30;20127;-80
2023/03/21 06:36:07;;;;;;;20.17;10.10;;;11.40;99.90;;;;;;4790046;30;20435;-80
2023/03/21 06:38:36;;;;;;;19.80;9.55;;;11.40;99.90;;;;;;4773669;30;20035;-79
2023/03/21 06:41:06;;;;;;;22.02;10.60;;;11.40;99.90;;;;;;4773943;30;20088;-80
2023/03/21 06:43:32;;;;;;;20.25;10.45;;;11.40;99.90;;;;;;4789243;30;20123;-80
2023/03/21 06:45:58;;;;;;;17.48;9.70;;;11.40;99.90;;;;;;4773765;30;20036;-79
2023/03/21 06:48:24;;;;;;;17.38;8.80;;;11.40;99.90;;;;;;4789650;30;20039;-80
2023/03/21 06:50:51;;;;;;;19.67;9.95;;;11.40;99.90;;;;;;4773960;30;20035;-78
2023/03/21 06:53:19;;;;;;;16.42;9.20;;;11.40;99.90;;;;;;4789552;30;20089;-80
2023/03/21 06:55:52;;;;;;;18.30;9.32;;;11.40;99.90;;;;;;4789633;30;20035;-80
2023/03/21 06:58:17;;;;;;;17.20;7.88;;;11.40;99.90;;;;;;4790046;30;20477;-78
2023/03/21 07:00:44;;;;;;;35.78;9.95;;;11.40;99.90;;;;;;4789349;30;20044;-78
2023/03/21 07:03:11;;;;;;;17.73;7.63;;;11.50;99.90;;;;;;4774005;30;20042;-76
2023/03/21 07:05:36;;;;;;;18.65;8.68;;;11.50;99.90;;;;;;4789456;30;20358;-76
2023/03/21 07:08:03;;;;;;;17.83;8.80;;;11.60;99.90;;;;;;4789098;30;20172;-76
2023/03/21 07:10:28;;;;;;;13.73;6.95;;;11.50;99.90;;;;;;4772966;30;20066;-76
2023/03/21 07:12:54;;;;;;;18.38;8.57;;;11.60;99.90;;;;;;4789133;30;20457;-75
2023/03/21 07:15:20;;;;;;;18.15;7.55;;;11.60;99.90;;;;;;4788882;30;20035;-75
2023/03/21 07:17:46;;;;;;;22.13;8.00;;;11.70;99.90;;;;;;4787986;30;20044;-79
2023/03/21 07:20:12;;;;;;;16.58;8.13;;;11.80;99.90;;;;;;4760103;30;20066;-78
2023/03/21 07:22:38;;;;;;;19.10;7.75;;;11.80;99.90;;;;;;4793277;30;20035;-78
2023/03/21 07:25:04;;;;;;;14.57;7.85;;;11.80;99.90;;;;;;4795991;30;20066;-79
2023/03/21 07:27:31;;;;;;;18.60;8.48;;;11.90;99.90;;;;;;4796447;30;20047;-79
2023/03/21 07:29:56;;;;;;;19.77;7.75;;;11.90;99.90;;;;;;4780299;30;20039;-80
2023/03/21 07:32:22;;;;;;;17.75;7.78;;;11.90;99.90;;;;;;4795014;30;20031;-77
2023/03/21 07:34:47;;;;;;;19.58;7.97;;;11.90;99.90;;;;;;4779365;30;20088;-78
2023/03/21 07:37:15;;;;;;;20.67;8.13;;;11.90;99.90;;;;;;4779010;30;20469;-78
2023/03/21 07:39:41;;;;;;;15.00;7.85;;;11.90;99.90;;;;;;4779500;30;20481;-78
2023/03/21 07:42:07;;;;;;;13.68;7.35;;;11.90;99.90;;;;;;4795816;30;20039;-78
2023/03/21 07:44:33;;;;;;;13.32;7.72;;;11.80;99.90;;;;;;4775688;30;20034;-78
2023/03/21 07:46:59;;;;;;;17.95;7.25;;;11.80;99.90;;;;;;4792020;30;20111;-79
2023/03/21 07:49:25;;;;;;;18.75;7.43;;;11.80;99.90;;;;;;4777235;30;20042;-78
2023/03/21 07:51:51;;;;;;;18.90;7.80;;;11.80;99.90;;;;;;4774470;30;20500;-78
2023/03/21 07:54:19;;;;;;;14.50;7.85;;;11.80;99.90;;;;;;4790793;30;20027;-79
2023/03/21 07:56:45;;;;;;;14.85;7.30;;;11.70;99.90;;;;;;4794098;30;20121;-79
2023/03/21 07:59:11;;;;;;;15.80;6.47;;;11.70;99.90;;;;;;4779226;30;20067;-78
2023/03/21 08:01:36;;;;;;;17.65;7.85;;;11.70;99.90;;;;;;4777856;30;20091;-79
2023/03/21 08:04:02;;;;;;;14.70;7.25;;;11.60;99.90;;;;;;4779864;30;20076;-79
2023/03/21 08:06:28;;;;;;;15.95;6.72;;;11.60;99.90;;;;;;4777684;30;20043;-79
2023/03/21 08:08:53;;;;;;;20.60;8.32;;;11.50;99.90;;;;;;4793779;30;20056;-78
2023/03/21 08:11:20;;;;;;;21.20;7.90;;;11.50;99.90;;;;;;4772639;30;20043;-76
2023/03/21 08:13:46;;;;;;;19.08;8.00;;;11.40;99.90;;;;;;4788697;30;20054;-76
2023/03/21 08:16:12;;;;;;;15.40;7.30;;;11.40;99.90;;;;;;4788301;30;20070;-76
2023/03/21 08:18:38;;;;;;;15.32;7.72;;;11.40;99.90;;;;;;4788339;30;20087;-76
2023/03/21 08:21:03;;;;;;;19.52;7.85;;;11.40;99.90;;;;;;4772104;30;20031;-77
2023/03/21 08:23:29;;;;;;;19.67;6.80;;;11.40;99.90;;;;;;4772479;30;20035;-76
2023/03/21 08:25:55;;;;;;;25.38;7.93;;;11.40;99.90;;;;;;4788272;30;20472;-77
2023/03/21 08:28:22;;;;;;;22.42;8.05;;;11.40;99.90;;;;;;4787154;30;20097;-78
2023/03/21 08:30:48;;;;;;;18.48;6.65;;;11.40;99.90;;;;;;4788122;30;20374;-77
2023/03/21 08:33:14;;;;;;;18.55;7.53;;;11.40;99.90;;;;;;4771745;30;20039;-77
2023/03/21 08:35:40;;;;;;;15.43;7.07;;;11.40;99.90;;;;;;4772436;30;20043;-77
2023/03/21 08:38:06;;;;;;;20.55;7.90;;;11.40;99.90;;;;;;4787687;30;20472;-76
2023/03/21 08:40:32;;;;;;;18.85;7.65;;;11.50;99.90;;;;;;4788171;30;20177;-77
2023/03/21 08:42:58;;;;;;;18.73;7.90;;;11.40;99.90;;;;;;4787837;30;20044;-77
2023/03/21 08:45:25;;;;;;;17.13;7.22;;;11.40;99.90;;;;;;4788046;30;20035;-77
2023/03/21 08:47:52;;;;;;;16.95;7.22;;;11.40;99.90;;;;;;4789410;29;20050;-79
2023/03/21 08:50:26;;;;;;;17.75;7.63;;;11.50;99.90;;;;;;4775501;30;20436;-79
2023/03/21 08:52:52;;;;;;;16.83;7.55;;;11.40;99.90;;;;;;4791692;30;20027;-79
2023/03/21 08:55:18;;;;;;;20.15;7.60;;;11.40;99.90;;;;;;4775770;30;20080;-79
2023/03/21 08:57:45;;;;;;;17.50;7.40;;;11.40;99.90;;;;;;4791817;30;20492;-78
2023/03/21 09:00:16;;;;;;;15.48;7.60;;;11.50;99.90;;;;;;4792197;30;20027;-79
2023/03/21 09:02:47;;;;;;;19.75;7.57;;;11.50;99.90;;;;;;4791036;30;20377;-78
2023/03/21 09:05:15;;;;;;;17.83;7.10;;;11.50;99.90;;;;;;4791785;30;20023;-79
2023/03/21 09:07:41;;;;;;;15.45;6.55;;;11.50;99.90;;;;;;4790951;30;20104;-79
2023/03/21 09:10:10;;;;;;;15.68;7.03;;;11.50;99.90;;;;;;4791309;30;20469;-78
2023/03/21 09:12:37;;;;;;;13.88;6.88;;;11.50;99.90;;;;;;4791204;30;20118;-79
2023/03/21 09:15:03;;;;;;;16.77;6.88;;;11.60;99.90;;;;;;4791200;30;20051;-80
2023/03/21 09:17:30;;;;;;;13.25;6.93;;;11.60;99.90;;;;;;4774882;30;20496;-79
2023/03/21 09:19:59;;;;;;;18.02;7.28;;;11.60;99.90;;;;;;4775082;30;20047;-79
2023/03/21 09:22:26;;;;;;;17.13;7.32;;;11.70;99.90;;;;;;4775934;30;20070;-79
2023/03/21 09:24:52;;;;;;;16.30;6.57;;;11.70;99.90;;;;;;4791373;30;20031;-79
2023/03/21 09:27:21;;;;;;;16.25;7.70;;;11.70;99.90;;;;;;4790900;30;20046;-79
2023/03/21 09:29:48;;;;;;;16.90;8.40;;;11.90;99.90;;;;;;4790684;30;20035;-79
2023/03/21 09:32:15;;;;;;;15.90;7.00;;;11.90;99.90;;;;;;4791496;30;20150;-77
2023/03/21 09:34:41;;;;;;;14.00;7.03;;;11.90;99.90;;;;;;4790886;30;20039;-78
2023/03/21 09:37:12;;;;;;;13.30;6.95;;;11.90;99.90;;;;;;4774634;30;20039;-77
2023/03/21 09:39:39;;;;;;;19.85;7.47;;;11.90;99.90;;;;;;4790893;30;20354;-78
2023/03/21 09:42:32;;;;;;;18.48;6.88;;;11.90;99.90;;;;;;4774921;30;20159;-79
2023/03/21 09:45:05;;;;;;;15.02;6.75;;;11.90;99.90;;;;;;4789538;30;20070;-77
2023/03/21 09:47:36;;;;;;;15.57;7.05;;;12.00;99.90;;;;;;4774451;30;20082;-78
2023/03/21 09:50:26;;;;;;;19.00;6.95;;;12.00;99.90;;;;;;4789936;30;20338;-78
2023/03/21 09:53:12;;;;;;;15.05;6.90;;;12.00;99.90;;;;;;4790824;30;20031;-78
2023/03/21 09:55:40;;;;;;;13.32;6.88;;;11.90;99.90;;;;;;4790227;30;20098;-78
2023/03/21 09:58:27;;;;;;;14.52;6.28;;;11.90;99.90;;;;;;4773900;29;20051;-77
2023/03/21 10:01:27;;;;;;;12.65;6.47;;;11.90;99.90;;;;;;4790243;30;20035;-78
2023/03/21 10:03:54;;;;;;;12.80;6.30;;;11.90;99.90;;;;;;4790300;30;20059;-78
2023/03/21 10:06:27;;;;;;;10.98;6.32;;;11.90;99.90;;;;;;4789023;30;20489;-78
2023/03/21 10:09:00;;;;;;;15.85;6.28;;;11.90;99.90;;;;;;4789137;30;20481;-78
2023/03/21 10:11:36;;;;;;;11.77;6.45;;;11.90;99.90;;;;;;4790558;30;20039;-78
2023/03/21 10:14:12;;;;;;;14.60;5.97;;;11.90;99.90;;;;;;4790822;30;20023;-77
2023/03/21 10:16:44;;;;;;;12.82;5.90;;;12.00;99.90;;;;;;4790312;30;20036;-78
2023/03/21 10:19:17;;;;;;;14.52;6.65;;;11.90;99.90;;;;;;4790372;30;20035;-79
2023/03/21 10:21:47;;;;;;;9.77;5.18;;;11.90;99.90;;;;;;4790115;30;20032;-78
2023/03/21 10:24:20;;;;;;;14.57;5.55;;;11.90;99.90;;;;;;4790109;30;20045;-78
2023/03/21 10:26:49;;;;;;;13.57;5.63;;;12.00;99.90;;;;;;4790167;30;20031;-78
2023/03/21 10:29:17;;;;;;;8.40;5.10;;;12.10;99.90;;;;;;4789812;30;20044;-79
2023/03/21 10:31:45;;;;;;;11.85;5.10;;;12.10;99.90;;;;;;4789641;30;20084;-78
2023/03/21 10:34:22;;;;;;;15.88;5.10;;;12.20;99.90;;;;;;4790086;30;20032;-78
2023/03/21 10:36:48;;;;;;;12.45;5.32;;;12.20;99.90;;;;;;4789768;30;20031;-79
2023/03/21 10:39:26;;;;;;;11.13;5.78;;;12.30;99.90;;;;;;4773570;30;20039;-80
2023/03/21 10:41:53;;;;;;;10.13;4.70;;;12.30;99.90;;;;;;4789737;30;20038;-81
2023/03/21 10:44:19;;;;;;;13.93;5.63;;;12.30;99.90;;;;;;4773409;30;20058;-80
2023/03/21 10:46:57;;;;;;;9.80;4.60;;;12.30;99.90;;;;;;4773185;30;20032;-77
2023/03/21 10:49:26;;;;;;;12.30;5.65;;;12.30;99.90;;;;;;4773736;30;20035;-78
2023/03/21 10:51:58;;;;;;;15.23;5.57;;;12.30;99.90;;;;;;4789311;30;20110;-78
2023/03/21 10:54:29;;;;;;;12.30;5.43;;;12.30;99.90;;;;;;4789266;30;20062;-78
2023/03/21 10:57:04;;;;;;;11.13;5.40;;;12.30;99.90;;;;;;4789294;30;20031;-77
2023/03/21 10:59:52;;;;;;;13.70;5.78;;;12.30;99.90;;;;;;4790522;30;20537;-78
2023/03/21 11:02:32;;;;;;;15.23;6.00;;;12.40;99.90;;;;;;4788362;30;20114;-78
2023/03/21 11:05:07;;;;;;;10.77;5.40;;;12.40;99.90;;;;;;4789058;30;20051;-78
2023/03/21 11:07:35;;;;;;;12.15;5.75;;;12.50;99.90;;;;;;4789460;30;20042;-78
2023/03/21 11:10:13;;;;;;;8.40;5.30;;;12.60;99.90;;;;;;4773653;30;20042;-78
2023/03/21 11:12:40;;;;;;;16.67;6.22;;;12.60;99.90;;;;;;4790426;30;20061;-80
2023/03/21 11:15:28;;;;;;;12.35;5.10;;;12.70;99.90;;;;;;4794657;30;20039;-79
2023/03/21 11:17:54;;;;;;;10.70;5.15;;;12.80;99.90;;;;;;4778715;30;20035;-79
2023/03/21 11:20:20;;;;;;;12.85;5.13;;;12.80;99.90;;;;;;4795873;30;20038;-80
2023/03/21 11:22:47;;;;;;;11.75;5.07;;;12.80;99.90;;;;;;4790947;30;20054;-80
2023/03/21 11:25:26;;;;;;;15.13;5.30;;;12.90;99.90;;;;;;4793947;30;20426;-78
2023/03/21 11:27:55;;;;;;;13.98;4.90;;;12.90;99.90;;;;;;4790895;30;20126;-78
2023/03/21 11:30:24;;;;;;;12.00;5.07;;;12.80;99.90;;;;;;4792112;30;20374;-77
2023/03/21 11:33:00;;;;;;;10.30;5.60;;;12.80;99.90;;;;;;4791314;30;20034;-78
2023/03/21 11:35:37;;;;;;;11.35;5.85;;;12.80;99.90;;;;;;4790884;30;20039;-78
2023/03/21 11:38:05;;;;;;;9.85;4.88;;;12.90;99.90;;;;;;4792467;30;20475;-78
2023/03/21 11:40:35;;;;;;;12.77;5.40;;;12.90;99.90;;;;;;4792319;30;20039;-78
2023/03/21 11:43:23;;;;;;;11.48;5.35;;;12.80;99.90;;;;;;4792455;30;20043;-77
2023/03/21 11:46:04;;;;;;;13.55;5.60;;;12.80;99.90;;;;;;4793206;30;20397;-78
2023/03/21 11:48:35;;;;;;;12.00;4.70;;;12.80;99.90;;;;;;4792680;30;20457;-79
2023/03/21 11:51:24;;;;;;;17.80;5.30;;;12.80;99.90;;;;;;4777734;30;20118;-78
2023/03/21 11:53:56;;;;;;;10.73;4.60;;;12.90;99.90;;;;;;4776283;30;20123;-79
2023/03/21 11:56:33;;;;;;;11.38;4.75;;;12.90;99.90;;;;;;4792047;30;20035;-77
2023/03/21 11:59:36;;;;;;;11.13;4.63;;;12.90;99.90;;;;;;4776906;30;20122;-78
2023/03/21 12:02:21;;;;;;;8.60;4.82;;;13.00;99.90;;;;;;4792691;30;20032;-78
2023/03/21 12:05:03;;;;;;;9.52;4.35;;;13.10;99.90;;;;;;4776075;30;20106;-78
2023/03/21 12:07:53;;;;;;;9.95;4.88;;;13.10;99.90;;;;;;4791622;30;20039;-78
2023/03/21 12:10:38;;;;;;;11.38;5.05;;;13.10;99.90;;;;;;4790518;30;20036;-78
2023/03/21 12:13:23;;;;;;;8.93;4.57;;;13.10;99.90;;;;;;4790817;30;20028;-78
2023/03/21 12:16:11;;;;;;;11.23;4.03;;;13.10;99.90;;;;;;4789291;30;20031;-78
2023/03/21 12:18:56;;;;;;;13.07;5.72;;;13.20;99.90;;;;;;4789801;30;20500;-78
2023/03/21 12:21:53;;;;;;;12.32;4.55;;;13.20;99.90;;;;;;4790397;29;20110;-78
2023/03/21 12:24:28;;;;;;;9.27;3.90;;;13.20;99.90;;;;;;4794241;30;20027;-77
2023/03/21 12:27:18;;;;;;;11.13;4.13;;;13.20;99.90;;;;;;4779749;30;20042;-78
2023/03/21 12:30:22;;;;;;;9.55;4.68;;;13.20;99.90;;;;;;4795650;30;20111;-78
2023/03/21 12:33:03;;;;;;;10.85;4.18;;;13.20;99.90;;;;;;4794790;30;20043;-78
2023/03/21 12:35:53;;;;;;;7.07;3.67;;;13.20;99.90;;;;;;4794638;30;20128;-78
2023/03/21 12:38:42;;;;;;;10.60;4.28;;;13.10;99.90;;;;;;4794446;30;20036;-79
2023/03/21 12:41:26;;;;;;;9.25;3.67;;;13.10;99.90;;;;;;4793048;30;20066;-78
2023/03/21 12:44:28;;;;;;;12.43;4.50;;;13.00;99.90;;;;;;4796372;30;20492;-78
2023/03/21 12:47:23;;;;;;;10.40;4.28;;;13.00;99.90;;;;;;4777036;30;20059;-77
2023/03/21 12:49:55;;;;;;;11.63;3.90;;;13.00;99.90;;;;;;4794051;30;20481;-78
2023/03/21 12:52:39;;;;;;;11.07;4.53;;;13.00;99.90;;;;;;4795711;30;20035;-77